Time;durP1;ratioP1;P1;durP2;ratioP2;P2;SDS_P1;SDS_P2;PMS_P1;PMS_P2;Temp;Humidity;BMP_temperature;BMP_pressure;BME280_temperature;BME280_humidity;BME280_pressure;Samples;Min_cycle;Max_cycle;Signal;HPM_P1;HPM_P2
2022/10/26 00:01:32;;;;;;;5.77;2.53;;;13.50;99.90;;;;;;5048570;28;20222;-70
2022/10/26 00:03:58;;;;;;;3.17;2.73;;;13.50;99.90;;;;;;5049191;28;20239;-71
2022/10/26 00:06:26;;;;;;;2.73;2.53;;;13.50;99.90;;;;;;5048739;28;20219;-70
2022/10/26 00:08:52;;;;;;;3.20;2.40;;;13.50;99.90;;;;;;5031629;28;20228;-70
2022/10/26 00:11:18;;;;;;;2.77;2.57;;;13.50;99.90;;;;;;5047935;28;20481;-71
2022/10/26 00:13:45;;;;;;;3.67;2.47;;;13.50;99.90;;;;;;5047024;28;20603;-71
2022/10/26 00:16:15;;;;;;;5.90;2.50;;;13.50;99.90;;;;;;5043950;28;20467;-71
2022/10/26 00:18:41;;;;;;;3.90;2.33;;;13.50;99.90;;;;;;5049135;28;20467;-72
2022/10/26 00:21:09;;;;;;;2.57;2.37;;;13.50;99.90;;;;;;5033405;28;20531;-70
2022/10/26 00:23:35;;;;;;;2.80;2.47;;;13.50;99.90;;;;;;5030700;28;20994;-71
2022/10/26 00:26:00;;;;;;;2.47;2.27;;;13.50;99.90;;;;;;5049980;28;20469;-71
2022/10/26 00:28:26;;;;;;;2.57;2.37;;;13.50;99.90;;;;;;5040222;28;20315;-71
2022/10/26 00:30:52;;;;;;;4.73;2.77;;;13.40;99.90;;;;;;5054442;28;20220;-70
2022/10/26 00:33:18;;;;;;;2.17;1.97;;;13.50;99.90;;;;;;5038104;28;20482;-70
2022/10/26 00:35:48;;;;;;;2.87;2.57;;;13.40;99.90;;;;;;5054690;28;20270;-70
2022/10/26 00:38:14;;;;;;;3.27;2.83;;;13.40;99.90;;;;;;5046873;28;20469;-70
2022/10/26 00:40:39;;;;;;;3.10;2.80;;;13.40;99.90;;;;;;5049319;28;20473;-70
2022/10/26 00:43:14;;;;;;;4.47;2.50;;;13.40;99.90;;;;;;5064334;28;20442;-70
2022/10/26 00:45:41;;;;;;;2.80;2.50;;;13.40;99.90;;;;;;5036824;28;20251;-71
2022/10/26 00:48:18;;;;;;;5.20;2.47;;;13.40;99.90;;;;;;5033510;28;20479;-70
2022/10/26 00:50:46;;;;;;;5.90;3.10;;;13.40;99.90;;;;;;5041607;28;20973;-72
2022/10/26 00:53:12;;;;;;;6.87;3.33;;;13.40;99.90;;;;;;5008271;28;20472;-71
2022/10/26 00:55:47;;;;;;;3.97;3.00;;;13.40;99.90;;;;;;5025491;28;20459;-70
2022/10/26 00:58:14;;;;;;;6.03;3.20;;;13.40;99.90;;;;;;5023696;28;21010;-70
2022/10/26 01:00:41;;;;;;;8.73;4.63;;;13.40;99.90;;;;;;5028327;28;20465;-69
2022/10/26 01:03:08;;;;;;;4.50;3.70;;;13.40;99.90;;;;;;5029859;28;20501;-70
2022/10/26 01:05:37;;;;;;;4.73;3.70;;;13.40;99.90;;;;;;5032249;28;20559;-70
2022/10/26 01:08:03;;;;;;;4.33;3.43;;;13.40;99.90;;;;;;5022633;28;20886;-70
2022/10/26 01:10:29;;;;;;;5.07;3.60;;;13.40;99.90;;;;;;5023568;28;20539;-70
2022/10/26 01:12:57;;;;;;;5.70;3.40;;;13.40;99.90;;;;;;5017273;28;20224;-70
2022/10/26 01:15:35;;;;;;;4.50;3.10;;;13.40;99.90;;;;;;5027884;28;20540;-70
2022/10/26 01:18:31;;;;;;;4.00;3.13;;;13.40;99.90;;;;;;5029834;28;20454;-70
2022/10/26 01:21:24;;;;;;;5.83;3.20;;;13.40;99.90;;;;;;5032017;28;20460;-70
2022/10/26 01:23:50;;;;;;;6.17;3.90;;;13.40;99.90;;;;;;5027097;28;20479;-71
2022/10/26 01:26:40;;;;;;;6.57;3.37;;;13.40;99.90;;;;;;5042692;28;20948;-70
2022/10/26 01:29:06;;;;;;;4.93;3.87;;;13.40;99.90;;;;;;5047237;28;20248;-70
2022/10/26 01:31:54;;;;;;;3.93;3.30;;;13.40;99.90;;;;;;5031723;28;20494;-70
2022/10/26 01:34:34;;;;;;;3.50;3.20;;;13.40;99.90;;;;;;5038907;28;20228;-70
2022/10/26 01:37:13;;;;;;;5.40;3.10;;;13.40;99.90;;;;;;5049480;28;20517;-70
2022/10/26 01:39:44;;;;;;;5.50;3.50;;;13.40;99.90;;;;;;5049724;28;20454;-70
2022/10/26 01:42:12;;;;;;;9.27;3.80;;;13.40;99.90;;;;;;5050258;28;20928;-71
2022/10/26 01:44:47;;;;;;;4.60;3.70;;;13.30;99.90;;;;;;5051763;28;20450;-70
2022/10/26 01:47:15;;;;;;;8.10;3.83;;;13.30;99.90;;;;;;5066770;28;20469;-70
2022/10/26 01:49:49;;;;;;;4.87;4.30;;;13.30;99.90;;;;;;5047150;28;20473;-70
2022/10/26 01:52:17;;;;;;;5.20;3.70;;;13.40;99.90;;;;;;5055591;28;20466;-71
2022/10/26 01:54:43;;;;;;;5.80;3.47;;;13.30;99.90;;;;;;5032171;28;20467;-71
2022/10/26 01:57:12;;;;;;;4.33;3.50;;;13.40;99.90;;;;;;5051080;28;20461;-71
2022/10/26 01:59:40;;;;;;;6.60;3.40;;;13.40;99.90;;;;;;5045045;28;20215;-70
2022/10/26 02:02:50;;;;;;;3.70;3.40;;;13.40;99.90;;;;;;5049929;28;20584;-71
2022/10/26 02:05:37;;;;;;;5.00;3.20;;;13.40;99.90;;;;;;5046451;28;20474;-70
2022/10/26 02:08:27;;;;;;;4.90;4.30;;;13.40;99.90;;;;;;5041507;28;20442;-70
2022/10/26 02:11:04;;;;;;;4.03;3.00;;;13.40;99.90;;;;;;5050039;28;20455;-71
2022/10/26 02:13:42;;;;;;;3.30;2.80;;;13.40;99.90;;;;;;5051186;28;20481;-71
2022/10/26 02:16:33;;;;;;;3.87;3.43;;;13.40;99.90;;;;;;5047062;28;20442;-70
2022/10/26 02:19:10;;;;;;;7.63;3.50;;;13.40;99.90;;;;;;5061428;28;20459;-70
2022/10/26 02:21:44;;;;;;;3.70;3.40;;;13.40;99.90;;;;;;5045946;28;20457;-71
2022/10/26 02:24:12;;;;;;;4.07;3.13;;;13.40;99.90;;;;;;5063920;28;20488;-70
2022/10/26 02:26:40;;;;;;;3.83;3.37;;;13.40;99.90;;;;;;5058686;28;20461;-71
2022/10/26 02:29:10;;;;;;;5.50;3.40;;;13.40;99.90;;;;;;5024688;28;20454;-70
2022/10/26 02:31:37;;;;;;;5.57;3.63;;;13.40;99.90;;;;;;5048424;28;20454;-70
2022/10/26 02:34:08;;;;;;;5.43;3.70;;;13.40;99.90;;;;;;5041948;28;20487;-71
2022/10/26 02:36:37;;;;;;;3.70;3.37;;;13.50;99.90;;;;;;5033859;28;20451;-71
2022/10/26 02:39:04;;;;;;;4.47;3.40;;;13.40;99.90;;;;;;5049487;28;20485;-70
2022/10/26 02:41:32;;;;;;;3.80;3.50;;;13.40;99.90;;;;;;5033308;28;20821;-70
2022/10/26 02:44:20;;;;;;;4.10;3.13;;;13.40;99.90;;;;;;5049461;28;20477;-71
2022/10/26 02:46:46;;;;;;;5.17;3.80;;;13.40;99.90;;;;;;5059008;28;20547;-71
2022/10/26 02:49:12;;;;;;;3.43;2.97;;;13.40;99.90;;;;;;5065403;28;20545;-70
2022/10/26 02:51:49;;;;;;;5.47;3.40;;;13.40;99.90;;;;;;5050168;28;21060;-71
2022/10/26 02:54:55;;;;;;;5.90;4.47;;;13.40;99.90;;;;;;5041041;28;20545;-70
2022/10/26 02:57:39;;;;;;;3.87;3.47;;;13.40;99.90;;;;;;5048547;28;20450;-71
2022/10/26 03:00:07;;;;;;;3.33;3.03;;;13.40;99.90;;;;;;5047923;28;20535;-71
2022/10/26 03:02:33;;;;;;;4.30;3.50;;;13.40;99.90;;;;;;5048376;28;20985;-71
2022/10/26 03:05:09;;;;;;;4.50;3.57;;;13.40;99.90;;;;;;5057406;28;20447;-71
2022/10/26 03:07:35;;;;;;;5.97;4.03;;;13.40;99.90;;;;;;5049538;28;20307;-70
2022/10/26 03:10:00;;;;;;;4.33;2.90;;;13.40;99.90;;;;;;5049228;28;20554;-70
2022/10/26 03:12:26;;;;;;;8.07;3.83;;;13.40;99.90;;;;;;5032176;28;20285;-70
2022/10/26 03:14:52;;;;;;;4.00;3.70;;;13.40;99.90;;;;;;5065063;28;20228;-71
2022/10/26 03:17:17;;;;;;;5.40;3.83;;;13.40;99.90;;;;;;5050897;28;20220;-71
2022/10/26 03:19:43;;;;;;;5.73;3.47;;;13.40;99.90;;;;;;5032381;28;20228;-70
2022/10/26 03:22:08;;;;;;;8.73;3.90;;;13.40;99.90;;;;;;5032502;28;20219;-70
2022/10/26 03:24:34;;;;;;;7.00;4.30;;;13.40;99.90;;;;;;5045759;28;20216;-71
2022/10/26 03:27:00;;;;;;;4.23;3.60;;;13.40;99.90;;;;;;5027999;28;20312;-70
2022/10/26 03:29:25;;;;;;;4.10;3.47;;;13.40;99.90;;;;;;5057798;28;20247;-70
2022/10/26 03:31:53;;;;;;;3.70;3.10;;;13.40;99.90;;;;;;5049525;28;20618;-71
2022/10/26 03:34:19;;;;;;;4.83;4.00;;;13.40;99.90;;;;;;5048554;28;20289;-70
2022/10/26 03:36:46;;;;;;;4.80;3.37;;;13.40;99.90;;;;;;5048464;28;20484;-72
2022/10/26 03:39:11;;;;;;;5.20;3.63;;;13.40;99.90;;;;;;5048483;28;20455;-71
2022/10/26 03:41:37;;;;;;;6.97;4.77;;;13.40;99.90;;;;;;5043757;28;20516;-70
2022/10/26 03:44:03;;;;;;;3.43;3.13;;;13.40;99.90;;;;;;5043175;28;20251;-71
2022/10/26 03:46:28;;;;;;;4.90;3.67;;;13.40;99.90;;;;;;5032968;28;20680;-70
2022/10/26 03:48:54;;;;;;;5.37;3.33;;;13.40;99.90;;;;;;5031381;28;20322;-71
2022/10/26 03:51:20;;;;;;;6.10;3.97;;;13.40;99.90;;;;;;5065225;28;20244;-70
2022/10/26 03:53:45;;;;;;;6.57;4.40;;;13.40;99.90;;;;;;5043979;28;20246;-72
2022/10/26 03:56:11;;;;;;;5.60;4.43;;;13.40;99.90;;;;;;5048064;28;20228;-70
2022/10/26 03:58:37;;;;;;;5.10;4.10;;;13.40;99.90;;;;;;5028537;28;20231;-70
2022/10/26 04:01:02;;;;;;;7.43;5.07;;;13.40;99.90;;;;;;5042678;28;20251;-70
2022/10/26 04:03:28;;;;;;;8.63;3.73;;;13.40;99.90;;;;;;5047855;28;20250;-70
2022/10/26 04:05:54;;;;;;;7.50;4.63;;;13.40;99.90;;;;;;5047978;28;20235;-71
2022/10/26 04:08:19;;;;;;;6.80;4.70;;;13.40;99.90;;;;;;5044019;28;20224;-71
2022/10/26 04:10:46;;;;;;;4.97;4.47;;;13.40;99.90;;;;;;5037925;28;20219;-71
2022/10/26 04:13:12;;;;;;;7.20;4.53;;;13.40;99.90;;;;;;5044619;28;20269;-70
2022/10/26 04:15:38;;;;;;;7.90;4.80;;;13.40;99.90;;;;;;5048314;28;20493;-70
2022/10/26 04:18:03;;;;;;;7.33;4.47;;;13.40;99.90;;;;;;5047743;28;20231;-70
2022/10/26 04:20:32;;;;;;;5.37;4.00;;;13.40;99.90;;;;;;5049163;28;20715;-71
2022/10/26 04:23:02;;;;;;;6.37;4.43;;;13.40;99.90;;;;;;5047200;28;20708;-71
2022/10/26 04:25:29;;;;;;;8.70;4.70;;;13.40;99.90;;;;;;5050576;28;20455;-70
2022/10/26 04:27:55;;;;;;;5.30;4.00;;;13.40;99.90;;;;;;5063739;28;20495;-71
2022/10/26 04:30:21;;;;;;;4.30;3.90;;;13.40;99.90;;;;;;5047859;28;20479;-70
2022/10/26 04:32:46;;;;;;;4.40;3.83;;;13.40;99.90;;;;;;5030632;28;20208;-70
2022/10/26 04:35:12;;;;;;;6.30;4.00;;;13.40;99.90;;;;;;5053170;28;20731;-70
2022/10/26 04:37:37;;;;;;;4.73;4.00;;;13.40;99.90;;;;;;5048919;28;20215;-71
2022/10/26 04:40:04;;;;;;;6.20;5.07;;;13.40;99.90;;;;;;5051859;28;20258;-70
2022/10/26 04:42:32;;;;;;;4.60;4.20;;;13.40;99.90;;;;;;5035178;28;20214;-71
2022/10/26 04:44:59;;;;;;;5.93;4.30;;;13.40;99.90;;;;;;5052905;28;20474;-71
2022/10/26 04:47:24;;;;;;;7.67;4.20;;;13.40;99.90;;;;;;5051423;28;20974;-71
2022/10/26 04:49:50;;;;;;;4.30;3.90;;;13.40;99.90;;;;;;5051928;28;20457;-71
2022/10/26 04:52:16;;;;;;;5.60;4.83;;;13.40;99.90;;;;;;5052965;28;20220;-71
2022/10/26 04:54:41;;;;;;;3.77;3.47;;;13.40;99.90;;;;;;5051665;28;20231;-71
2022/10/26 04:57:07;;;;;;;6.07;4.90;;;13.40;99.90;;;;;;5032889;28;20216;-71
2022/10/26 04:59:33;;;;;;;4.40;4.00;;;13.40;99.90;;;;;;5051158;28;20261;-71
2022/10/26 05:01:58;;;;;;;8.10;4.57;;;13.40;99.90;;;;;;5050063;28;20212;-71
2022/10/26 05:04:24;;;;;;;6.67;4.20;;;13.40;99.90;;;;;;5026741;28;20732;-71
2022/10/26 05:06:52;;;;;;;7.60;4.70;;;13.30;99.90;;;;;;5052233;28;20226;-71
2022/10/26 05:09:18;;;;;;;5.47;4.23;;;13.30;99.90;;;;;;5060940;28;20642;-70
2022/10/26 05:11:43;;;;;;;6.93;4.80;;;13.30;99.90;;;;;;5034996;28;20529;-70
2022/10/26 05:14:09;;;;;;;5.67;5.00;;;13.30;99.90;;;;;;5052052;28;20319;-70
2022/10/26 05:16:35;;;;;;;11.03;4.67;;;13.30;99.90;;;;;;5033003;28;20300;-70
2022/10/26 05:19:01;;;;;;;6.33;4.97;;;13.30;99.90;;;;;;5049135;28;20220;-70
2022/10/26 05:21:26;;;;;;;5.37;4.53;;;13.30;99.90;;;;;;5051022;28;20322;-71
2022/10/26 05:23:54;;;;;;;8.60;5.30;;;13.30;99.90;;;;;;5028713;28;20227;-71
2022/10/26 05:26:21;;;;;;;6.27;3.57;;;13.30;99.90;;;;;;5032059;28;20297;-70
2022/10/26 05:28:47;;;;;;;7.33;4.87;;;13.30;99.90;;;;;;5011498;28;20497;-70
2022/10/26 05:31:12;;;;;;;5.60;5.10;;;13.30;99.90;;;;;;5041623;28;20474;-71
2022/10/26 05:33:38;;;;;;;6.70;4.90;;;13.30;99.90;;;;;;5050246;28;20350;-70
2022/10/26 05:36:04;;;;;;;10.47;4.57;;;13.30;99.90;;;;;;5050795;28;20281;-71
2022/10/26 05:38:30;;;;;;;5.00;4.07;;;13.30;99.90;;;;;;5051599;28;20220;-70
2022/10/26 05:40:56;;;;;;;6.63;4.37;;;13.30;99.90;;;;;;5047311;28;20815;-71
2022/10/26 05:43:23;;;;;;;5.00;4.47;;;13.30;99.90;;;;;;5064054;28;20223;-71
2022/10/26 05:45:49;;;;;;;5.63;4.63;;;13.30;99.90;;;;;;5051776;28;20219;-71
2022/10/26 05:48:15;;;;;;;6.30;4.40;;;13.30;99.90;;;;;;5042007;28;20538;-71
2022/10/26 05:50:41;;;;;;;5.47;4.77;;;13.30;99.90;;;;;;5050089;28;20458;-70
2022/10/26 05:53:07;;;;;;;8.10;5.13;;;13.30;99.90;;;;;;5051310;28;20711;-70
2022/10/26 05:55:33;;;;;;;6.47;4.80;;;13.30;99.90;;;;;;5058517;28;20291;-70
2022/10/26 05:57:59;;;;;;;5.70;4.37;;;13.30;99.90;;;;;;5033889;28;20238;-70
2022/10/26 06:00:27;;;;;;;5.17;4.67;;;13.30;99.90;;;;;;5050830;28;20451;-70
2022/10/26 06:03:08;;;;;;;5.50;4.37;;;13.20;99.90;;;;;;5050791;28;20299;-71
2022/10/26 06:05:57;;;;;;;4.77;4.37;;;13.20;99.90;;;;;;5050242;28;20486;-70
2022/10/26 06:08:25;;;;;;;5.00;4.50;;;13.20;99.90;;;;;;5049299;28;20467;-70
2022/10/26 06:10:51;;;;;;;5.93;5.10;;;13.20;99.90;;;;;;5051099;28;20492;-71
2022/10/26 06:13:17;;;;;;;5.93;5.30;;;13.20;99.90;;;;;;5066744;28;20533;-70
2022/10/26 06:15:58;;;;;;;5.77;4.10;;;13.20;99.90;;;;;;5033710;28;20220;-71
2022/10/26 06:19:08;;;;;;;6.13;4.70;;;13.20;99.90;;;;;;5050604;28;20458;-70
2022/10/26 06:22:00;;;;;;;6.50;4.30;;;13.20;99.90;;;;;;5012381;28;20463;-71
2022/10/26 06:24:30;;;;;;;5.40;4.63;;;13.20;99.90;;;;;;5054745;28;20482;-70
2022/10/26 06:27:30;;;;;;;5.73;4.43;;;13.20;99.90;;;;;;5074298;28;20457;-71
2022/10/26 06:30:03;;;;;;;7.40;4.60;;;13.20;99.90;;;;;;5026820;28;21114;-70
2022/10/26 06:32:29;;;;;;;6.33;4.00;;;13.20;99.90;;;;;;5026424;28;20459;-71
2022/10/26 06:35:32;;;;;;;6.90;4.10;;;13.20;99.90;;;;;;5033132;28;20524;-71
2022/10/26 06:38:03;;;;;;;6.50;4.60;;;13.20;99.90;;;;;;5066317;28;20458;-70
2022/10/26 06:40:32;;;;;;;7.80;4.23;;;13.20;99.90;;;;;;5066388;28;20457;-71
2022/10/26 06:42:59;;;;;;;6.90;4.20;;;13.20;99.90;;;;;;5049614;28;20450;-71
2022/10/26 06:45:25;;;;;;;5.50;4.00;;;13.20;99.90;;;;;;5049832;28;20450;-70
2022/10/26 06:48:03;;;;;;;4.13;3.67;;;13.20;99.90;;;;;;5048602;28;20458;-71
2022/10/26 06:50:52;;;;;;;5.37;4.27;;;13.20;99.90;;;;;;5049801;28;20446;-71
2022/10/26 06:53:24;;;;;;;6.80;4.53;;;13.20;99.90;;;;;;5046383;28;20545;-71
2022/10/26 06:55:51;;;;;;;8.40;4.17;;;13.20;99.90;;;;;;5062802;28;20512;-70
2022/10/26 06:58:19;;;;;;;4.93;4.43;;;13.20;99.90;;;;;;5045531;28;20974;-71
2022/10/26 07:00:47;;;;;;;5.40;3.77;;;13.20;99.90;;;;;;5046385;28;20477;-72
2022/10/26 07:03:13;;;;;;;4.40;3.50;;;13.20;99.90;;;;;;5047539;28;20450;-70
2022/10/26 07:05:39;;;;;;;5.73;4.47;;;13.20;99.90;;;;;;5049101;28;20528;-71
2022/10/26 07:08:05;;;;;;;4.77;3.70;;;13.20;99.90;;;;;;5034461;28;20233;-70
2022/10/26 07:10:31;;;;;;;4.67;4.17;;;13.20;99.90;;;;;;5048132;28;20235;-70
2022/10/26 07:12:56;;;;;;;5.10;3.93;;;13.20;99.90;;;;;;5049439;28;20454;-70
2022/10/26 07:15:22;;;;;;;9.30;5.33;;;13.20;99.90;;;;;;5035484;28;20542;-70
2022/10/26 07:17:48;;;;;;;6.03;5.27;;;13.20;99.90;;;;;;5044271;28;20218;-71
2022/10/26 07:20:16;;;;;;;5.70;5.07;;;13.20;99.90;;;;;;5050240;28;20247;-70
2022/10/26 07:22:42;;;;;;;6.00;3.97;;;13.20;99.90;;;;;;5045391;28;20479;-70
2022/10/26 07:25:08;;;;;;;5.27;4.50;;;13.20;99.90;;;;;;5046662;28;20475;-70
2022/10/26 07:27:34;;;;;;;8.50;4.50;;;13.20;99.90;;;;;;5048429;28;20624;-70
2022/10/26 07:30:00;;;;;;;10.00;6.67;;;13.20;99.90;;;;;;5048446;28;21048;-70
2022/10/26 07:32:26;;;;;;;10.07;6.67;;;13.20;99.90;;;;;;5047499;28;20503;-70
2022/10/26 07:34:52;;;;;;;10.00;7.57;;;13.20;99.90;;;;;;5028059;28;20471;-71
2022/10/26 07:37:17;;;;;;;14.60;7.67;;;13.20;99.90;;;;;;5046583;28;20277;-70
2022/10/26 07:39:43;;;;;;;16.77;9.60;;;13.20;99.90;;;;;;5064199;28;20318;-70
2022/10/26 07:42:09;;;;;;;22.77;11.67;;;13.30;99.90;;;;;;5064325;28;20212;-71
2022/10/26 07:44:34;;;;;;;17.20;10.37;;;13.30;99.90;;;;;;5048875;28;20623;-70
2022/10/26 07:47:00;;;;;;;19.17;11.80;;;13.30;99.90;;;;;;5044523;28;20259;-71
2022/10/26 07:49:25;;;;;;;22.73;10.50;;;13.30;99.90;;;;;;5042084;28;20222;-70
2022/10/26 07:51:51;;;;;;;12.77;8.60;;;13.30;99.90;;;;;;5030691;28;20603;-71
2022/10/26 07:54:17;;;;;;;11.50;8.37;;;13.30;99.90;;;;;;5061585;28;20227;-70
2022/10/26 07:56:42;;;;;;;10.47;8.00;;;13.30;99.90;;;;;;5028225;28;20227;-71
2022/10/26 07:59:11;;;;;;;12.13;9.20;;;13.30;99.90;;;;;;5042911;28;20228;-70
2022/10/26 08:01:37;;;;;;;12.70;8.00;;;13.30;99.90;;;;;;5029993;28;20599;-70
2022/10/26 08:04:02;;;;;;;10.13;7.10;;;13.30;99.90;;;;;;5049024;28;20541;-70
2022/10/26 08:06:28;;;;;;;7.20;6.50;;;13.30;99.90;;;;;;5064424;28;20290;-70
2022/10/26 08:08:53;;;;;;;11.63;7.40;;;13.40;99.90;;;;;;5031233;28;20703;-71
2022/10/26 08:11:19;;;;;;;9.07;6.80;;;13.40;99.90;;;;;;5048405;28;20241;-71
2022/10/26 08:13:45;;;;;;;9.63;6.97;;;13.40;99.90;;;;;;5050936;28;20247;-71
2022/10/26 08:16:11;;;;;;;8.57;6.30;;;13.40;99.90;;;;;;5052594;28;20234;-70
2022/10/26 08:18:36;;;;;;;9.63;5.30;;;13.40;99.90;;;;;;5045936;28;20215;-70
2022/10/26 08:21:08;;;;;;;10.00;5.93;;;13.50;99.90;;;;;;5050848;28;20224;-70
2022/10/26 08:23:34;;;;;;;5.73;4.93;;;13.50;99.90;;;;;;5029866;28;20220;-70
2022/10/26 08:26:01;;;;;;;6.23;4.83;;;13.60;99.90;;;;;;5040890;28;21037;-71
2022/10/26 08:28:28;;;;;;;5.60;4.33;;;13.60;99.90;;;;;;5068720;28;20239;-71
2022/10/26 08:30:54;;;;;;;5.00;4.50;;;13.70;99.90;;;;;;5051534;28;20467;-71
2022/10/26 08:33:20;;;;;;;8.50;5.00;;;13.80;99.90;;;;;;5054556;28;20461;-71
2022/10/26 08:35:45;;;;;;;8.43;4.83;;;13.80;99.90;;;;;;5053340;28;20577;-71
2022/10/26 08:38:11;;;;;;;3.93;3.63;;;13.90;99.90;;;;;;5069623;28;20443;-72
2022/10/26 08:40:39;;;;;;;4.83;3.80;;;14.00;99.90;;;;;;5038094;28;20621;-71
2022/10/26 08:43:14;;;;;;;4.97;4.47;;;14.00;99.90;;;;;;5042598;28;20289;-71
2022/10/26 08:45:56;;;;;;;6.50;4.00;;;14.00;99.90;;;;;;5024841;28;20454;-71
2022/10/26 08:48:31;;;;;;;4.77;3.73;;;14.10;99.90;;;;;;5054847;28;20458;-71
2022/10/26 08:51:02;;;;;;;6.20;3.80;;;14.10;99.90;;;;;;5045329;28;20534;-71
2022/10/26 08:53:59;;;;;;;3.93;3.47;;;14.10;99.90;;;;;;5043930;28;20524;-70
2022/10/26 08:56:34;;;;;;;5.37;3.73;;;14.20;99.90;;;;;;5038020;28;20450;-70
2022/10/26 08:59:11;;;;;;;5.33;3.53;;;14.20;99.90;;;;;;5040465;28;20516;-71
2022/10/26 09:01:36;;;;;;;3.60;3.17;;;14.20;99.90;;;;;;5058626;28;20450;-71
2022/10/26 09:04:08;;;;;;;3.30;3.00;;;14.30;99.90;;;;;;5054424;28;20876;-71
2022/10/26 09:07:09;;;;;;;4.33;3.33;;;14.30;99.90;;;;;;5058191;28;20219;-71
2022/10/26 09:09:56;;;;;;;3.87;3.07;;;14.30;99.90;;;;;;5044613;28;20538;-71
2022/10/26 09:12:44;;;;;;;4.30;3.10;;;14.40;99.90;;;;;;5045268;28;20449;-71
2022/10/26 09:15:32;;;;;;;5.50;4.97;;;14.40;99.90;;;;;;5042853;28;21283;-70
2022/10/26 09:18:25;;;;;;;6.00;3.60;;;14.50;99.90;;;;;;5036897;28;20467;-71
2022/10/26 09:21:08;;;;;;;3.17;2.93;;;14.50;99.90;;;;;;5055854;28;20461;-72
2022/10/26 09:23:55;;;;;;;4.47;3.63;;;14.60;99.90;;;;;;5048731;28;20533;-70
2022/10/26 09:26:58;;;;;;;3.90;3.33;;;14.60;99.90;;;;;;5055878;28;20521;-70
2022/10/26 09:29:39;;;;;;;4.97;4.10;;;14.70;99.90;;;;;;5029113;28;20522;-69
2022/10/26 09:32:16;;;;;;;6.27;3.97;;;14.80;99.90;;;;;;5061449;28;20885;-72
2022/10/26 09:34:51;;;;;;;7.57;4.20;;;14.90;99.90;;;;;;5037148;28;20527;-72
2022/10/26 09:37:24;;;;;;;6.83;4.07;;;15.10;99.90;;;;;;5041006;28;20465;-71
2022/10/26 09:40:15;;;;;;;5.40;3.80;;;15.20;99.90;;;;;;5044240;28;20482;-72
2022/10/26 09:42:48;;;;;;;8.10;3.37;;;15.20;99.90;;;;;;5042790;28;20488;-70
2022/10/26 09:45:31;;;;;;;6.70;3.90;;;15.30;99.90;;;;;;5036426;28;21030;-71
2022/10/26 09:48:06;;;;;;;4.73;3.90;;;15.40;99.90;;;;;;5043454;28;20466;-70
2022/10/26 09:50:38;;;;;;;5.70;2.93;;;15.60;99.90;;;;;;5055397;28;20442;-71
2022/10/26 09:53:04;;;;;;;7.17;3.60;;;15.70;99.90;;;;;;5030910;28;20480;-70
2022/10/26 09:55:38;;;;;;;5.27;3.93;;;16.00;99.90;;;;;;5048494;28;20511;-71
2022/10/26 09:58:11;;;;;;;4.47;3.40;;;16.00;99.90;;;;;;5064677;28;20462;-71
2022/10/26 10:00:39;;;;;;;5.30;3.90;;;16.10;99.90;;;;;;5050654;28;20461;-69
2022/10/26 10:03:23;;;;;;;3.47;3.17;;;16.20;99.90;;;;;;5023907;28;20458;-70
2022/10/26 10:05:49;;;;;;;4.10;3.20;;;16.40;99.90;;;;;;5043983;28;20458;-72
2022/10/26 10:08:23;;;;;;;10.97;3.50;;;16.50;99.90;;;;;;5050598;28;20449;-71
2022/10/26 10:11:11;;;;;;;4.00;3.40;;;16.70;99.90;;;;;;5026691;28;20220;-71
2022/10/26 10:13:44;;;;;;;5.40;3.00;;;16.70;99.90;;;;;;5041066;28;20512;-71
2022/10/26 10:16:10;;;;;;;3.37;2.53;;;16.90;99.90;;;;;;5047774;28;20903;-71
2022/10/26 10:18:38;;;;;;;3.10;2.77;;;17.00;99.90;;;;;;5037697;28;20434;-71
2022/10/26 10:21:05;;;;;;;4.67;3.50;;;17.20;99.90;;;;;;5049092;28;20223;-71
2022/10/26 10:23:31;;;;;;;6.27;3.10;;;17.50;99.90;;;;;;5065688;28;21055;-72
2022/10/26 10:26:04;;;;;;;4.17;3.63;;;17.50;99.90;;;;;;5028494;28;20885;-72
2022/10/26 10:28:30;;;;;;;13.30;3.67;;;17.50;99.90;;;;;;5047972;28;20512;-71
2022/10/26 10:30:58;;;;;;;7.33;3.30;;;17.60;99.90;;;;;;5045673;28;20467;-72
2022/10/26 10:33:39;;;;;;;3.33;3.03;;;17.60;99.90;;;;;;5048430;28;20231;-71
2022/10/26 10:36:10;;;;;;;5.37;3.17;;;17.60;99.90;;;;;;5044948;28;20457;-71
2022/10/26 10:38:38;;;;;;;4.67;3.10;;;17.60;99.90;;;;;;5050989;28;20450;-72
2022/10/26 10:41:14;;;;;;;3.10;2.73;;;17.60;99.90;;;;;;5042533;28;20478;-71
2022/10/26 10:43:45;;;;;;;5.70;2.90;;;17.60;99.90;;;;;;5039879;28;20504;-71
2022/10/26 10:46:18;;;;;;;4.50;2.80;;;17.60;99.90;;;;;;5061890;28;20825;-71
2022/10/26 10:48:51;;;;;;;3.60;3.07;;;17.60;99.90;;;;;;5037489;28;20890;-71
2022/10/26 10:51:22;;;;;;;3.73;3.00;;;17.60;99.90;;;;;;5062404;28;20527;-71
2022/10/26 10:53:54;;;;;;;4.27;3.60;;;17.60;99.90;;;;;;5047449;28;20466;-72
2022/10/26 10:56:35;;;;;;;3.87;3.10;;;17.60;99.90;;;;;;5062439;28;20454;-72
2022/10/26 10:59:25;;;;;;;3.20;2.87;;;17.60;99.90;;;;;;5046359;28;20478;-71
2022/10/26 11:02:28;;;;;;;4.60;3.00;;;17.60;99.90;;;;;;5039799;28;20470;-71
2022/10/26 11:05:12;;;;;;;4.13;2.60;;;17.60;99.90;;;;;;5064888;28;20446;-72
2022/10/26 11:07:54;;;;;;;3.37;3.10;;;17.60;99.90;;;;;;5042341;28;20469;-71
2022/10/26 11:10:21;;;;;;;3.43;2.87;;;17.60;99.90;;;;;;5065578;28;20476;-71
2022/10/26 11:12:59;;;;;;;2.77;2.53;;;17.70;99.90;;;;;;5047112;28;20458;-72
2022/10/26 11:15:32;;;;;;;6.70;3.13;;;17.70;99.90;;;;;;5045222;28;20451;-71
2022/10/26 11:18:13;;;;;;;3.20;3.00;;;17.70;99.90;;;;;;5028061;28;20447;-71
2022/10/26 11:20:52;;;;;;;5.47;3.60;;;17.70;99.90;;;;;;5064019;28;20537;-71
2022/10/26 11:23:44;;;;;;;6.60;3.60;;;17.70;99.90;;;;;;5047650;28;20461;-71
2022/10/26 11:26:32;;;;;;;4.57;4.17;;;17.70;99.90;;;;;;5050643;28;20441;-71
2022/10/26 11:29:00;;;;;;;6.13;4.10;;;17.70;99.90;;;;;;5046683;28;20822;-72
2022/10/26 11:31:32;;;;;;;4.70;4.10;;;17.70;99.90;;;;;;5031417;28;20454;-71
2022/10/26 11:34:15;;;;;;;4.40;3.73;;;17.80;99.90;;;;;;5040633;28;20571;-71
2022/10/26 11:36:45;;;;;;;4.73;3.40;;;17.80;99.90;;;;;;5046907;28;21022;-71
2022/10/26 11:39:14;;;;;;;3.37;3.07;;;17.80;99.90;;;;;;5038499;28;21031;-71
2022/10/26 11:41:41;;;;;;;4.07;3.77;;;17.90;99.90;;;;;;5048138;28;20424;-71
2022/10/26 11:44:10;;;;;;;3.93;3.60;;;17.90;99.90;;;;;;5040926;28;20454;-71
2022/10/26 11:46:43;;;;;;;4.23;3.73;;;17.90;99.90;;;;;;5030451;28;20458;-71
2022/10/26 11:49:21;;;;;;;3.90;3.50;;;17.90;99.90;;;;;;5045407;28;20484;-71
2022/10/26 11:51:54;;;;;;;6.93;3.37;;;17.90;99.90;;;;;;5047007;28;20877;-71
2022/10/26 11:54:37;;;;;;;3.67;2.80;;;18.00;99.90;;;;;;5040307;28;20462;-71
2022/10/26 11:57:04;;;;;;;3.60;2.90;;;18.10;99.90;;;;;;5058345;28;20458;-71
2022/10/26 11:59:34;;;;;;;2.43;2.23;;;18.10;99.90;;;;;;5046737;28;20453;-72
2022/10/26 12:02:05;;;;;;;3.90;2.63;;;18.10;99.90;;;;;;5041812;28;20962;-71
2022/10/26 12:04:34;;;;;;;3.33;3.03;;;18.20;99.90;;;;;;5048613;28;20463;-72
2022/10/26 12:07:03;;;;;;;4.60;3.07;;;18.20;99.90;;;;;;5059353;28;20470;-71
2022/10/26 12:09:35;;;;;;;11.13;3.00;;;18.30;99.90;;;;;;5064653;28;20529;-71
2022/10/26 12:12:20;;;;;;;3.73;2.73;;;18.40;99.90;;;;;;5045084;28;20512;-72
2022/10/26 12:14:56;;;;;;;2.97;2.57;;;18.40;99.90;;;;;;5059967;28;21028;-72
2022/10/26 12:17:33;;;;;;;14.53;3.27;;;18.50;99.90;;;;;;5054929;28;20466;-71
2022/10/26 12:20:38;;;;;;;3.93;3.13;;;18.50;99.90;;;;;;5044959;28;20513;-72
2022/10/26 12:23:07;;;;;;;11.37;4.77;;;18.70;99.90;;;;;;5042470;28;20454;-71
2022/10/26 12:25:33;;;;;;;74.83;42.00;;;18.70;99.90;;;;;;5048404;28;20465;-71
2022/10/26 12:27:59;;;;;;;25.90;13.60;;;18.70;99.90;;;;;;5063667;28;20467;-71
2022/10/26 12:30:33;;;;;;;21.13;13.37;;;18.80;99.90;;;;;;5053031;28;20228;-71
2022/10/26 12:33:22;;;;;;;34.13;22.20;;;18.90;99.90;;;;;;5046268;28;20254;-71
2022/10/26 12:35:48;;;;;;;31.30;20.50;;;19.00;99.90;;;;;;5039648;28;20462;-72
2022/10/26 12:38:23;;;;;;;15.50;10.80;;;19.10;99.90;;;;;;5026453;28;20462;-72
2022/10/26 12:41:12;;;;;;;6.10;4.50;;;19.20;99.90;;;;;;5044643;28;20261;-72
2022/10/26 12:43:40;;;;;;;4.77;3.60;;;19.40;99.90;;;;;;5034355;28;20466;-71
2022/10/26 12:46:11;;;;;;;5.10;4.33;;;19.40;99.90;;;;;;5046753;28;20450;-71
2022/10/26 12:48:47;;;;;;;3.10;2.63;;;19.50;99.90;;;;;;5046699;28;20466;-71
2022/10/26 12:51:20;;;;;;;2.30;2.10;;;19.70;99.90;;;;;;5045854;28;20457;-72
2022/10/26 12:53:56;;;;;;;2.03;1.90;;;19.80;99.90;;;;;;5040435;28;20593;-72
2022/10/26 12:56:32;;;;;;;2.20;1.80;;;19.80;99.90;;;;;;5039176;28;20445;-72
2022/10/26 12:59:03;;;;;;;8.83;2.50;;;20.00;99.90;;;;;;5039386;28;20455;-72
2022/10/26 13:01:45;;;;;;;2.33;1.80;;;20.00;99.90;;;;;;5052303;28;20538;-72
2022/10/26 13:04:24;;;;;;;5.93;2.23;;;20.10;99.90;;;;;;5022259;28;20958;-71
2022/10/26 13:07:12;;;;;;;2.37;2.17;;;20.20;99.90;;;;;;5025489;28;20444;-72
2022/10/26 13:09:37;;;;;;;2.17;1.60;;;20.30;99.90;;;;;;5050765;28;20730;-72